createdAt,value
2023-02-28T00:00:38.680Z,102433.00
2023-02-28T00:03:05.716Z,102432.25
2023-02-28T00:05:32.868Z,102431.56
2023-02-28T00:07:59.696Z,102434.53
2023-02-28T00:10:31.711Z,102432.06
2023-02-28T00:13:07.440Z,102434.25
2023-02-28T00:15:35.124Z,102429.25
2023-02-28T00:18:02.281Z,102430.13
2023-02-28T00:20:29.066Z,102425.28
2023-02-28T00:22:56.340Z,102420.69
2023-02-28T00:25:26.168Z,102425.16
2023-02-28T00:27:53.682Z,102421.47
2023-02-28T00:30:23.744Z,102421.84
2023-02-28T00:32:51.622Z,102406.50
2023-02-28T00:35:19.011Z,102419.16
2023-02-28T00:37:45.760Z,102420.66
2023-02-28T00:40:13.403Z,102420.13
2023-02-28T00:42:41.144Z,102413.09
2023-02-28T00:45:09.431Z,102413.50
2023-02-28T00:47:38.518Z,102409.38
2023-02-28T00:50:06.510Z,102409.16
2023-02-28T00:52:33.207Z,102418.56
2023-02-28T00:54:59.860Z,102414.63
2023-02-28T00:57:27.299Z,102412.59
2023-02-28T00:59:55.322Z,102422.41
2023-02-28T01:02:23.430Z,102418.56
2023-02-28T01:04:52.860Z,102422.97
2023-02-28T01:07:19.542Z,102426.00
2023-02-28T01:09:46.881Z,102426.00
2023-02-28T01:12:13.663Z,102423.44
2023-02-28T01:14:40.385Z,102429.69
2023-02-28T01:17:07.317Z,102436.38
2023-02-28T01:19:34.445Z,102428.25
2023-02-28T01:22:06.260Z,102427.72
2023-02-28T01:24:34.565Z,102425.16
2023-02-28T01:27:01.335Z,102420.28
2023-02-28T01:29:28.041Z,102424.38
2023-02-28T01:31:54.705Z,102425.41
2023-02-28T01:34:21.334Z,102425.06
2023-02-28T01:36:47.970Z,102429.47
2023-02-28T01:39:14.675Z,102422.38
2023-02-28T01:41:41.586Z,102426.78
2023-02-28T01:44:46.624Z,102424.84
2023-02-28T01:47:13.344Z,102418.47
2023-02-28T01:49:40.508Z,102420.03
2023-02-28T01:52:08.630Z,102419.22
2023-02-28T01:54:35.961Z,102412.88
2023-02-28T01:57:15.977Z,102418.22
2023-02-28T01:59:52.616Z,102419.75
2023-02-28T02:02:25.719Z,102421.75
2023-02-28T02:05:17.678Z,102421.47
2023-02-28T02:07:49.345Z,102427.78
2023-02-28T02:10:15.912Z,102423.25
2023-02-28T02:13:18.204Z,102417.88
2023-02-28T02:16:03.598Z,102419.13
2023-02-28T02:18:59.782Z,102420.91
2023-02-28T02:21:45.152Z,102424.09
2023-02-28T02:24:25.689Z,102422.69
2023-02-28T02:27:19.017Z,102409.00
2023-02-28T02:30:14.905Z,102409.97
2023-02-28T02:33:04.515Z,102414.47
2023-02-28T02:36:09.464Z,102419.56
2023-02-28T02:38:48.674Z,102415.88
2023-02-28T02:41:35.676Z,102416.25
2023-02-28T02:44:11.638Z,102407.47
2023-02-28T02:46:43.329Z,102409.97
2023-02-28T02:49:15.972Z,102411.41
2023-02-28T02:51:45.348Z,102412.72
2023-02-28T02:54:38.488Z,102419.81
2023-02-28T02:57:10.328Z,102411.16
2023-02-28T02:59:40.523Z,102422.59
2023-02-28T03:02:11.380Z,102417.97
2023-02-28T03:04:49.605Z,102423.22
2023-02-28T03:07:16.187Z,102427.06
2023-02-28T03:09:52.488Z,102422.72
2023-02-28T03:12:20.648Z,102426.41
2023-02-28T03:14:54.510Z,102424.69
2023-02-28T03:17:26.381Z,102421.41
2023-02-28T03:20:09.025Z,102424.38
2023-02-28T03:23:00.149Z,102424.38
2023-02-28T03:25:44.099Z,102425.34
2023-02-28T03:28:20.805Z,102419.22
2023-02-28T03:31:15.428Z,102414.66
2023-02-28T03:33:55.674Z,102410.44
2023-02-28T03:36:28.073Z,102416.91
2023-02-28T03:39:07.568Z,102415.78
2023-02-28T03:41:39.849Z,102416.09
2023-02-28T03:44:30.410Z,102421.19
2023-02-28T03:47:06.167Z,102421.81
2023-02-28T03:49:41.585Z,102422.31
2023-02-28T03:52:09.367Z,102424.22
2023-02-28T03:54:46.873Z,102426.75
2023-02-28T03:57:24.784Z,102425.53
2023-02-28T03:59:58.129Z,102426.41
2023-02-28T04:02:25.031Z,102422.53
2023-02-28T04:04:52.243Z,102422.84
2023-02-28T04:07:19.047Z,102425.53
2023-02-28T04:09:45.835Z,102427.06
2023-02-28T04:12:12.563Z,102425.00
2023-02-28T04:14:39.395Z,102422.84
2023-02-28T04:17:06.115Z,102429.50
2023-02-28T04:19:32.986Z,102430.41
2023-02-28T04:21:59.728Z,102431.00
2023-02-28T04:24:29.036Z,102429.81
2023-02-28T04:26:57.966Z,102429.03
2023-02-28T04:29:27.937Z,102427.72
2023-02-28T04:31:57.235Z,102420.66
2023-02-28T04:34:24.604Z,102426.88
2023-02-28T04:37:06.098Z,102426.88
2023-02-28T04:39:38.806Z,102427.44
2023-02-28T04:42:05.491Z,102430.13
2023-02-28T04:44:32.738Z,102426.66
2023-02-28T04:46:59.462Z,102429.84
2023-02-28T04:49:26.415Z,102429.69
2023-02-28T04:51:53.937Z,102435.56
2023-02-28T04:54:20.967Z,102429.72
2023-02-28T04:56:49.565Z,102431.06
2023-02-28T04:59:16.320Z,102430.63
2023-02-28T05:01:47.956Z,102426.31
2023-02-28T05:04:15.045Z,102427.56
2023-02-28T05:06:41.832Z,102431.88
2023-02-28T05:09:08.573Z,102421.06
2023-02-28T05:11:36.254Z,102427.66
2023-02-28T05:14:11.370Z,102436.19
2023-02-28T05:16:38.381Z,102431.56
2023-02-28T05:19:05.171Z,102435.59
2023-02-28T05:21:49.808Z,102426.38
2023-02-28T05:24:16.542Z,102439.50
2023-02-28T05:26:44.138Z,102442.38
2023-02-28T05:29:11.101Z,102447.50
2023-02-28T05:31:39.319Z,102444.94
2023-02-28T05:34:06.566Z,102443.34
2023-02-28T05:36:34.163Z,102445.44
2023-02-28T05:39:00.898Z,102448.00
2023-02-28T05:41:28.307Z,102448.59
2023-02-28T05:43:55.385Z,102448.91
2023-02-28T05:46:22.425Z,102447.69
2023-02-28T05:48:49.787Z,102452.03
2023-02-28T05:51:16.998Z,102456.34
2023-02-28T05:53:43.924Z,102448.56
2023-02-28T05:56:10.709Z,102447.09
2023-02-28T05:58:37.344Z,102449.91
2023-02-28T06:01:32.645Z,102455.66
2023-02-28T06:04:04.996Z,102455.34
2023-02-28T06:06:31.843Z,102454.44
2023-02-28T06:08:58.841Z,102454.00
2023-02-28T06:11:28.795Z,102441.59
2023-02-28T06:13:57.599Z,102462.09
2023-02-28T06:16:25.568Z,102454.00
2023-02-28T06:18:53.672Z,102451.31
2023-02-28T06:21:20.295Z,102455.22
2023-02-28T06:23:46.986Z,102458.81
2023-02-28T06:26:13.928Z,102454.31
2023-02-28T06:28:41.068Z,102453.41
2023-02-28T06:31:10.199Z,102454.91
2023-02-28T06:33:38.848Z,102452.22
2023-02-28T06:36:06.598Z,102458.03
2023-02-28T06:38:34.268Z,102457.13
2023-02-28T06:41:02.055Z,102458.34
2023-02-28T06:43:30.890Z,102459.41
2023-02-28T06:45:59.740Z,102464.16
2023-02-28T06:48:27.822Z,102463.88
2023-02-28T06:51:06.526Z,102466.59
2023-02-28T06:53:33.709Z,102472.28
2023-02-28T06:56:00.672Z,102464.78
2023-02-28T06:58:27.347Z,102468.06
2023-02-28T07:00:54.291Z,102478.22
2023-02-28T07:03:21.986Z,102478.56
2023-02-28T07:05:48.641Z,102474.63
2023-02-28T07:08:15.540Z,102474.31
2023-02-28T07:10:42.417Z,102477.59
2023-02-28T07:13:10.066Z,102482.84
2023-02-28T07:15:41.767Z,102492.13
2023-02-28T07:18:10.398Z,102482.69
2023-02-28T07:20:37.100Z,102491.16
2023-02-28T07:23:03.878Z,102495.06
2023-02-28T07:25:30.635Z,102501.34
2023-02-28T07:27:57.976Z,102498.19
2023-02-28T07:30:24.635Z,102503.25
2023-02-28T07:32:51.293Z,102497.06
2023-02-28T07:35:18.217Z,102497.63
2023-02-28T07:37:44.906Z,102495.66
2023-02-28T07:40:12.749Z,102496.78
2023-02-28T07:42:40.208Z,102495.78
2023-02-28T07:45:07.718Z,102499.22
2023-02-28T07:47:34.428Z,102489.16
2023-02-28T07:50:01.361Z,102497.81
2023-02-28T07:52:28.069Z,102501.41
2023-02-28T07:54:54.839Z,102492.44
2023-02-28T07:57:21.535Z,102499.69
2023-02-28T07:59:48.293Z,102499.59
2023-02-28T08:02:16.510Z,102496.69
2023-02-28T08:04:43.814Z,102504.41
2023-02-28T08:07:14.101Z,102508.50
2023-02-28T08:09:41.498Z,102505.19
2023-02-28T08:12:09.094Z,102511.31
2023-02-28T08:14:36.333Z,102504.91
2023-02-28T08:17:03.553Z,102497.34
2023-02-28T08:19:30.318Z,102512.56
2023-02-28T08:21:57.184Z,102512.25
2023-02-28T08:24:24.096Z,102508.66
2023-02-28T08:26:50.901Z,102507.81
2023-02-28T08:29:17.935Z,102507.63
2023-02-28T08:31:44.677Z,102506.72
2023-02-28T08:34:14.627Z,102503.78
2023-02-28T08:36:41.520Z,102501.00
2023-02-28T08:39:08.588Z,102491.72
2023-02-28T08:41:35.333Z,102500.81
2023-02-28T08:44:02.469Z,102495.75
2023-02-28T08:46:29.193Z,102502.63
2023-02-28T08:49:00.976Z,102492.66
2023-02-28T08:51:28.905Z,102501.81
2023-02-28T08:54:00.882Z,102502.06
2023-02-28T08:56:29.299Z,102497.28
2023-02-28T08:58:57.836Z,102503.13
2023-02-28T09:01:29.971Z,102508.88
2023-02-28T09:03:57.807Z,102510.84
2023-02-28T09:06:27.574Z,102498.53
2023-02-28T09:08:59.630Z,102509.19
2023-02-28T09:11:27.054Z,102501.47
2023-02-28T09:13:53.896Z,102505.06
2023-02-28T09:16:20.848Z,102501.94
2023-02-28T09:18:47.574Z,102496.22
2023-02-28T09:21:16.642Z,102504.16
2023-02-28T09:23:45.105Z,102491.53
2023-02-28T09:26:21.398Z,102490.75
2023-02-28T09:28:48.175Z,102487.84
2023-02-28T09:31:24.319Z,102498.09
2023-02-28T09:33:54.121Z,102499.22
2023-02-28T09:36:23.226Z,102498.56
2023-02-28T09:38:52.390Z,102502.16
2023-02-28T09:41:24.978Z,102499.38
2023-02-28T09:43:57.560Z,102502.22
2023-02-28T09:46:43.128Z,102503.44
2023-02-28T09:49:18.291Z,102490.09
2023-02-28T09:52:02.123Z,102503.66
2023-02-28T09:54:30.999Z,102498.94
2023-02-28T09:57:05.560Z,102499.31
2023-02-28T09:59:44.980Z,102501.31
2023-02-28T10:02:32.590Z,102502.53
2023-02-28T10:05:06.361Z,102501.88
2023-02-28T10:07:58.514Z,102510.69
2023-02-28T10:10:38.354Z,102506.75
2023-02-28T10:13:26.996Z,102504.91
2023-02-28T10:15:59.724Z,102502.44
2023-02-28T10:18:37.168Z,102505.13
2023-02-28T10:21:04.158Z,102505.09
2023-02-28T10:23:36.575Z,102509.19
2023-02-28T10:26:17.062Z,102501.50
2023-02-28T10:28:44.359Z,102496.06
2023-02-28T10:31:20.783Z,102502.50
2023-02-28T10:33:49.852Z,102494.44
2023-02-28T10:36:19.885Z,102500.78
2023-02-28T10:38:48.211Z,102498.16
2023-02-28T10:41:17.508Z,102496.63
2023-02-28T10:43:48.664Z,102499.47
2023-02-28T10:46:27.077Z,102493.56
2023-02-28T10:49:13.693Z,102482.09
2023-02-28T10:51:42.180Z,102493.59
2023-02-28T10:54:19.232Z,102491.69
2023-02-28T10:56:46.200Z,102485.44
2023-02-28T10:59:15.718Z,102482.13
2023-02-28T11:01:46.093Z,102483.25
2023-02-28T11:04:33.354Z,102475.78
2023-02-28T11:07:03.040Z,102472.72
2023-02-28T11:09:31.551Z,102474.22
2023-02-28T11:11:58.706Z,102470.16
2023-02-28T11:14:28.454Z,102478.09
2023-02-28T11:17:00.120Z,102470.25
2023-02-28T11:19:34.868Z,102473.19
2023-02-28T11:22:03.825Z,102458.34
2023-02-28T11:24:43.685Z,102462.69
2023-02-28T11:27:51.228Z,102467.06
2023-02-28T11:30:30.661Z,102459.50
2023-02-28T11:32:57.667Z,102457.69
2023-02-28T11:35:27.082Z,102463.31
2023-02-28T11:37:53.979Z,102460.28
2023-02-28T11:40:31.387Z,102458.78
2023-02-28T11:43:07.856Z,102460.19
2023-02-28T11:46:00.247Z,102460.56
2023-02-28T11:48:35.666Z,102449.88
2023-02-28T11:51:14.366Z,102441.28
2023-02-28T11:53:52.685Z,102437.66
2023-02-28T11:56:37.105Z,102444.16
2023-02-28T11:59:09.739Z,102438.34
2023-02-28T12:01:54.677Z,102444.09
2023-02-28T12:04:46.133Z,102441.28
2023-02-28T12:07:28.608Z,102436.13
2023-02-28T12:10:17.094Z,102425.53
2023-02-28T12:12:43.633Z,102420.78
2023-02-28T12:15:19.139Z,102415.91
2023-02-28T12:18:06.407Z,102413.84
2023-02-28T12:20:45.470Z,102415.06
2023-02-28T12:23:49.930Z,102413.03
2023-02-28T12:26:25.571Z,102416.94
2023-02-28T12:28:58.550Z,102404.88
2023-02-28T12:31:28.546Z,102413.03
2023-02-28T12:34:02.442Z,102404.72
2023-02-28T12:36:29.647Z,102403.03
2023-02-28T12:39:07.517Z,102403.44
2023-02-28T12:41:55.076Z,102396.56
2023-02-28T12:44:29.673Z,102395.59
2023-02-28T12:47:01.488Z,102385.06
2023-02-28T12:49:42.153Z,102379.41
2023-02-28T12:52:12.043Z,102383.69
2023-02-28T12:55:08.412Z,102373.25
2023-02-28T12:58:01.380Z,102375.91
2023-02-28T13:00:36.354Z,102377.25
2023-02-28T13:03:02.943Z,102370.53
2023-02-28T13:05:38.363Z,102363.66
2023-02-28T13:08:28.456Z,102365.25
2023-02-28T13:10:55.760Z,102359.94
2023-02-28T13:13:33.552Z,102352.00
2023-02-28T13:16:05.653Z,102357.44
2023-02-28T13:18:45.385Z,102348.44
2023-02-28T13:21:30.739Z,102346.84
2023-02-28T13:24:01.201Z,102345.44
2023-02-28T13:26:37.022Z,102347.72
2023-02-28T13:29:16.794Z,102352.22
2023-02-28T13:32:07.818Z,102347.69
2023-02-28T13:34:58.723Z,102352.59
2023-02-28T13:37:25.608Z,102351.97
2023-02-28T13:39:55.697Z,102341.91
2023-02-28T13:42:31.545Z,102341.25
2023-02-28T13:45:04.345Z,102341.53
2023-02-28T13:47:40.074Z,102342.25
2023-02-28T13:50:39.010Z,102350.13
2023-02-28T13:53:14.603Z,102343.06
2023-02-28T13:55:50.242Z,102339.56
2023-02-28T13:58:47.025Z,102329.78
2023-02-28T14:01:29.819Z,102337.19
2023-02-28T14:04:33.730Z,102333.69
2023-02-28T14:07:01.890Z,102327.78
2023-02-28T14:09:32.969Z,102329.94
2023-02-28T14:12:38.045Z,102328.47
2023-02-28T14:15:25.558Z,102327.59
2023-02-28T14:17:57.361Z,102324.94
2023-02-28T14:20:27.584Z,102329.09
2023-02-28T14:23:07.762Z,102325.69
2023-02-28T14:25:48.793Z,102329.34
2023-02-28T14:28:33.764Z,102323.13
2023-02-28T14:31:10.883Z,102320.41
2023-02-28T14:33:59.899Z,102327.25
2023-02-28T14:36:42.168Z,102318.13
2023-02-28T14:39:15.382Z,102315.28
2023-02-28T14:41:44.450Z,102314.59
2023-02-28T14:44:28.288Z,102312.63
2023-02-28T14:46:57.098Z,102312.47
2023-02-28T14:49:31.719Z,102310.34
2023-02-28T14:52:13.768Z,102312.78
2023-02-28T14:54:41.481Z,102310.06
2023-02-28T14:57:22.509Z,102298.22
2023-02-28T14:59:58.849Z,102308.16
2023-02-28T15:02:27.135Z,102297.47
2023-02-28T15:04:56.610Z,102309.44
2023-02-28T15:07:29.526Z,102308.34
2023-02-28T15:10:14.426Z,102309.75
2023-02-28T15:12:42.862Z,102316.44
2023-02-28T15:15:19.389Z,102314.84
2023-02-28T15:17:51.795Z,102315.75
2023-02-28T15:20:20.160Z,102308.28
2023-02-28T15:22:52.486Z,102314.28
2023-02-28T15:25:22.208Z,102317.75
2023-02-28T15:27:55.996Z,102314.59
2023-02-28T15:30:28.343Z,102318.50
2023-02-28T15:33:19.456Z,102324.59
2023-02-28T15:35:46.699Z,102318.00
2023-02-28T15:38:27.714Z,102323.06
2023-02-28T15:40:59.282Z,102313.22
2023-02-28T15:43:37.728Z,102313.91
2023-02-28T15:46:10.803Z,102313.63
2023-02-28T15:48:53.294Z,102311.34
2023-02-28T15:51:32.020Z,102310.56
2023-02-28T15:54:02.757Z,102316.28
2023-02-28T15:56:32.856Z,102320.03
2023-02-28T15:59:19.045Z,102320.81
2023-02-28T16:01:46.383Z,102316.38
2023-02-28T16:04:22.825Z,102326.63
2023-02-28T16:07:06.952Z,102326.66
2023-02-28T16:09:35.221Z,102325.94
2023-02-28T16:12:04.246Z,102326.78
2023-02-28T16:14:32.339Z,102336.28
2023-02-28T16:17:09.814Z,102331.25
2023-02-28T16:19:36.542Z,102335.34
2023-02-28T16:22:03.257Z,102329.72
2023-02-28T16:24:30.037Z,102334.09
2023-02-28T16:26:58.183Z,102331.91
2023-02-28T16:29:30.842Z,102337.63
2023-02-28T16:31:58.673Z,102328.38
2023-02-28T16:34:26.355Z,102334.03
2023-02-28T16:36:53.525Z,102329.06
2023-02-28T16:39:23.105Z,102339.09
2023-02-28T16:41:51.210Z,102342.22
2023-02-28T16:44:35.656Z,102337.94
2023-02-28T16:47:03.902Z,102341.16
2023-02-28T16:49:31.136Z,102337.88
2023-02-28T16:51:57.892Z,102345.63
2023-02-28T16:54:24.537Z,102338.59
2023-02-28T16:56:51.394Z,102334.44
2023-02-28T16:59:23.130Z,102342.97
2023-02-28T17:01:50.480Z,102347.53
2023-02-28T17:04:17.645Z,102349.56
2023-02-28T17:06:44.815Z,102348.69
2023-02-28T17:09:26.350Z,102343.16
2023-02-28T17:11:57.788Z,102336.59
2023-02-28T17:14:24.544Z,102336.81
2023-02-28T17:16:51.274Z,102343.75
2023-02-28T17:19:18.876Z,102336.03
2023-02-28T17:21:46.315Z,102336.03
2023-02-28T17:24:16.606Z,102337.34
2023-02-28T17:26:46.351Z,102345.66
2023-02-28T17:29:18.387Z,102351.91
2023-02-28T17:31:45.170Z,102350.91
2023-02-28T17:34:12.512Z,102336.66
2023-02-28T17:36:39.242Z,102350.50
2023-02-28T17:39:12.189Z,102356.13
2023-02-28T17:41:38.886Z,102363.97
2023-02-28T17:44:05.637Z,102354.66
2023-02-28T17:46:33.501Z,102363.16
2023-02-28T17:49:01.003Z,102362.13
2023-02-28T17:51:27.649Z,102372.81
2023-02-28T17:53:54.406Z,102373.28
2023-02-28T17:56:26.005Z,102367.28
2023-02-28T17:58:54.890Z,102368.53
2023-02-28T18:01:22.580Z,102372.69
2023-02-28T18:03:49.844Z,102378.75
2023-02-28T18:06:23.281Z,102379.63
2023-02-28T18:08:52.397Z,102387.97
2023-02-28T18:11:21.116Z,102384.41
2023-02-28T18:13:50.096Z,102389.31
2023-02-28T18:16:17.920Z,102388.81
2023-02-28T18:18:44.954Z,102400.78
2023-02-28T18:21:15.178Z,102386.34
2023-02-28T18:23:47.977Z,102395.41
2023-02-28T18:26:16.251Z,102387.91
2023-02-28T18:28:44.595Z,102393.47
2023-02-28T18:31:18.181Z,102396.13
2023-02-28T18:33:48.865Z,102394.16
2023-02-28T18:36:16.274Z,102392.41
2023-02-28T18:38:43.817Z,102388.69
2023-02-28T18:41:10.616Z,102387.59
2023-02-28T18:43:40.722Z,102378.09
2023-02-28T18:46:11.787Z,102383.13
2023-02-28T18:48:39.534Z,102383.03
2023-02-28T18:51:11.229Z,102383.25
2023-02-28T18:53:39.235Z,102382.13
2023-02-28T18:56:07.497Z,102377.47
2023-02-28T18:58:34.570Z,102387.50
2023-02-28T19:01:03.126Z,102383.03
2023-02-28T19:03:30.216Z,102387.41
2023-02-28T19:05:58.531Z,102386.53
2023-02-28T19:08:25.854Z,102379.06
2023-02-28T19:10:53.025Z,102378.81
2023-02-28T19:13:20.784Z,102379.03
2023-02-28T19:15:48.583Z,102377.00
2023-02-28T19:18:15.606Z,102378.19
2023-02-28T19:20:42.440Z,102377.63
2023-02-28T19:23:11.698Z,102382.78
2023-02-28T19:25:42.665Z,102383.41
2023-02-28T19:28:09.459Z,102380.13
2023-02-28T19:30:36.170Z,102381.22
2023-02-28T19:33:02.992Z,102380.50
2023-02-28T19:35:29.799Z,102386.81
2023-02-28T19:37:58.258Z,102384.66
2023-02-28T19:40:25.608Z,102388.09
2023-02-28T19:42:52.357Z,102390.97
2023-02-28T19:45:19.062Z,102394.06
2023-02-28T19:47:45.715Z,102398.47
2023-02-28T19:50:20.458Z,102395.91
2023-02-28T19:52:49.524Z,102392.66
2023-02-28T19:55:17.484Z,102395.28
2023-02-28T19:57:44.608Z,102397.84
2023-02-28T20:00:14.562Z,102387.59
2023-02-28T20:02:43.837Z,102402.00
2023-02-28T20:05:13.519Z,102393.75
2023-02-28T20:07:40.234Z,102392.97
2023-02-28T20:10:07.358Z,102387.22
2023-02-28T20:12:34.125Z,102387.31
2023-02-28T20:15:00.942Z,102386.06
2023-02-28T20:17:29.148Z,102386.97
2023-02-28T20:19:55.932Z,102383.63
2023-02-28T20:22:22.710Z,102384.28
2023-02-28T20:24:49.450Z,102375.88
2023-02-28T20:27:16.463Z,102381.25
2023-02-28T20:29:43.096Z,102377.78
2023-02-28T20:32:09.979Z,102384.47
2023-02-28T20:34:36.649Z,102383.56
2023-02-28T20:37:03.445Z,102389.47
2023-02-28T20:39:30.171Z,102391.50
2023-02-28T20:41:56.864Z,102388.94
2023-02-28T20:44:23.642Z,102393.56
2023-02-28T20:46:51.099Z,102404.06
2023-02-28T20:49:17.889Z,102408.72
2023-02-28T20:51:44.616Z,102413.59
2023-02-28T20:54:11.797Z,102411.94
2023-02-28T20:56:38.829Z,102408.13
2023-02-28T20:59:05.820Z,102415.94
2023-02-28T21:01:33.017Z,102405.91
2023-02-28T21:04:02.480Z,102413.91
2023-02-28T21:06:31.860Z,102414.38
2023-02-28T21:08:59.228Z,102419.75
2023-02-28T21:11:29.469Z,102415.28
2023-02-28T21:13:59.377Z,102420.66
2023-02-28T21:16:27.294Z,102418.16
2023-02-28T21:18:55.249Z,102416.81
2023-02-28T21:21:24.454Z,102421.66
2023-02-28T21:23:52.148Z,102421.06
2023-02-28T21:26:22.330Z,102425.28
2023-02-28T21:28:54.824Z,102423.50
2023-02-28T21:31:24.427Z,102422.38
2023-02-28T21:33:52.887Z,102421.47
2023-02-28T21:36:22.475Z,102424.63
2023-02-28T21:38:51.005Z,102433.91
2023-02-28T21:41:21.189Z,102432.94
2023-02-28T21:43:48.554Z,102427.19
2023-02-28T21:46:17.670Z,102430.38
2023-02-28T21:48:44.352Z,102433.34
2023-02-28T21:51:13.969Z,102430.28
2023-02-28T21:53:42.191Z,102417.66
2023-02-28T21:56:30.641Z,102417.78
2023-02-28T21:59:00.734Z,102415.88
2023-02-28T22:01:40.406Z,102411.00
2023-02-28T22:04:10.203Z,102410.75
2023-02-28T22:06:39.947Z,102405.78
2023-02-28T22:09:08.854Z,102407.56
2023-02-28T22:11:36.900Z,102418.69
2023-02-28T22:14:03.712Z,102413.59
2023-02-28T22:16:44.106Z,102414.47
2023-02-28T22:19:17.001Z,102417.53
2023-02-28T22:21:44.929Z,102419.97
2023-02-28T22:24:11.982Z,102417.94
2023-02-28T22:26:38.580Z,102415.38
2023-02-28T22:29:05.468Z,102418.44
2023-02-28T22:31:35.287Z,102413.06
2023-02-28T22:34:08.690Z,102422.03
2023-02-28T22:36:36.210Z,102420.50
2023-02-28T22:39:04.451Z,102421.63
2023-02-28T22:41:31.796Z,102424.44
2023-02-28T22:44:00.660Z,102425.09
2023-02-28T22:46:29.063Z,102427.91
2023-02-28T22:48:57.621Z,102429.84
2023-02-28T22:51:25.969Z,102434.53
2023-02-28T22:53:54.299Z,102435.19
2023-02-28T22:56:22.723Z,102435.03
2023-02-28T22:58:55.135Z,102441.06
2023-02-28T23:01:24.022Z,102436.47
2023-02-28T23:03:51.299Z,102440.41
2023-02-28T23:06:20.682Z,102442.44
2023-02-28T23:08:47.713Z,102438.13
2023-02-28T23:11:22.838Z,102435.50
2023-02-28T23:13:59.308Z,102436.94
2023-02-28T23:16:35.916Z,102435.03
2023-02-28T23:19:05.895Z,102441.44
2023-02-28T23:21:32.808Z,102446.88
2023-02-28T23:24:02.722Z,102436.88
2023-02-28T23:26:31.166Z,102437.41
2023-02-28T23:28:58.614Z,102420.16
2023-02-28T23:31:25.319Z,102427.31
2023-02-28T23:33:52.073Z,102434.16
2023-02-28T23:36:18.901Z,102428.78
2023-02-28T23:38:47.819Z,102428.91
2023-02-28T23:41:15.401Z,102422.00
2023-02-28T23:43:42.068Z,102422.41
2023-02-28T23:46:10.276Z,102419.34
2023-02-28T23:48:37.283Z,102421.38
2023-02-28T23:51:09.910Z,102425.16
2023-02-28T23:53:38.635Z,102423.88
2023-02-28T23:56:06.972Z,102422.38
2023-02-28T23:58:33.862Z,102417.25
